Time;durP1;ratioP1;P1;durP2;ratioP2;P2;SDS_P1;SDS_P2;PMS_P1;PMS_P2;Temp;Humidity;BMP_temperature;BMP_pressure;BME280_temperature;BME280_humidity;BME280_pressure;Samples;Min_cycle;Max_cycle;Signal;HPM_P1;HPM_P2
2021/11/25 00:00:41;;;;;;;53.07;31.60;;;52.00;2227.20;;;;;;4809613;29;20034;-75
2021/11/25 00:03:07;;;;;;;51.03;30.33;;;52.00;2227.20;;;;;;4809731;29;20031;-75
2021/11/25 00:05:33;;;;;;;53.47;31.67;;;52.00;2227.20;;;;;;4833356;29;20041;-76
2021/11/25 00:08:02;;;;;;;50.73;30.60;;;52.00;2227.20;;;;;;4824588;29;20034;-78
2021/11/25 00:10:29;;;;;;;56.50;32.00;;;52.00;2227.20;;;;;;4839740;29;20065;-79
2021/11/25 00:12:55;;;;;;;52.57;31.70;;;51.90;2227.20;;;;;;4840852;29;20062;-76
2021/11/25 00:15:23;;;;;;;52.47;31.53;;;51.90;2227.20;;;;;;4841632;29;20033;-79
2021/11/25 00:17:49;;;;;;;52.77;30.57;;;51.90;2227.20;;;;;;4839541;29;20109;-78
2021/11/25 00:20:16;;;;;;;52.10;31.67;;;51.90;2227.20;;;;;;4837019;29;20031;-75
2021/11/25 00:22:43;;;;;;;52.43;30.30;;;51.90;2227.20;;;;;;4825892;29;20033;-75
2021/11/25 00:25:09;;;;;;;54.97;32.23;;;51.90;2227.20;;;;;;4809353;29;20068;-75
2021/11/25 00:27:36;;;;;;;49.00;30.20;;;51.90;2227.20;;;;;;4809756;29;20038;-75
2021/11/25 00:30:06;;;;;;;50.20;29.63;;;51.90;2227.20;;;;;;4809585;29;20113;-75
2021/11/25 00:32:32;;;;;;;56.87;32.33;;;51.90;2227.20;;;;;;4826302;29;20038;-75
2021/11/25 00:34:58;;;;;;;54.67;31.67;;;51.90;2227.20;;;;;;4809164;29;20494;-75
2021/11/25 00:37:23;;;;;;;57.07;32.80;;;51.80;2227.20;;;;;;4809453;29;20029;-75
2021/11/25 00:39:49;;;;;;;59.17;33.23;;;51.90;2227.20;;;;;;4809695;29;20060;-76
2021/11/25 00:42:15;;;;;;;60.53;32.87;;;51.90;2227.20;;;;;;4809762;29;20034;-75
2021/11/25 00:44:41;;;;;;;55.53;32.40;;;51.80;2227.20;;;;;;4826725;29;20026;-75
2021/11/25 00:47:08;;;;;;;58.67;33.30;;;51.80;2227.20;;;;;;4826273;29;20125;-75
2021/11/25 00:49:34;;;;;;;56.63;33.97;;;51.80;2227.20;;;;;;4809317;29;20369;-75
2021/11/25 00:52:00;;;;;;;56.63;33.77;;;51.80;2227.20;;;;;;4809397;29;20026;-75
2021/11/25 00:54:41;;;;;;;57.40;32.43;;;51.80;2227.20;;;;;;4825761;29;20448;-75
2021/11/25 00:57:06;;;;;;;51.17;30.57;;;51.70;2227.20;;;;;;4809044;29;20026;-76
2021/11/25 00:59:32;;;;;;;55.83;31.77;;;51.70;2227.20;;;;;;4825281;29;20026;-75
2021/11/25 01:01:58;;;;;;;54.73;33.07;;;51.70;2227.20;;;;;;4825261;29;20031;-75
2021/11/25 01:04:24;;;;;;;54.77;32.30;;;51.70;2227.20;;;;;;4809973;29;20032;-75
2021/11/25 01:06:51;;;;;;;55.83;32.60;;;51.70;2227.20;;;;;;4808654;29;20117;-75
2021/11/25 01:09:17;;;;;;;55.07;33.17;;;51.70;2227.20;;;;;;4826976;29;20026;-71
2021/11/25 01:11:44;;;;;;;56.23;32.23;;;51.70;2227.20;;;;;;4832802;29;20041;-80
2021/11/25 01:14:11;;;;;;;56.77;33.37;;;51.70;2227.20;;;;;;4823680;29;20039;-80
2021/11/25 01:16:37;;;;;;;51.10;31.47;;;51.60;2227.20;;;;;;4825542;29;20031;-80
2021/11/25 01:19:03;;;;;;;59.10;33.67;;;51.60;2227.20;;;;;;4838842;29;20066;-80
2021/11/25 01:21:29;;;;;;;56.87;32.00;;;51.60;2227.20;;;;;;4821594;29;20038;-80
2021/11/25 01:23:55;;;;;;;59.23;34.93;;;51.60;2227.20;;;;;;4823057;29;20034;-80
2021/11/25 01:26:21;;;;;;;59.73;33.30;;;51.70;2227.20;;;;;;4822906;29;20065;-79
2021/11/25 01:28:47;;;;;;;56.23;32.67;;;51.60;2227.20;;;;;;4836984;29;20033;-80
2021/11/25 01:31:13;;;;;;;64.37;35.37;;;51.60;2227.20;;;;;;4821810;29;20026;-80
2021/11/25 01:33:39;;;;;;;56.17;33.10;;;51.50;2227.20;;;;;;4836522;29;20050;-79
2021/11/25 01:36:05;;;;;;;59.60;34.57;;;51.60;2227.20;;;;;;4838316;29;20026;-80
2021/11/25 01:38:32;;;;;;;57.17;33.00;;;51.50;2227.20;;;;;;4837635;29;20026;-80
2021/11/25 01:40:58;;;;;;;60.23;33.13;;;51.50;2227.20;;;;;;4837001;29;20178;-79
2021/11/25 01:43:25;;;;;;;57.47;31.60;;;51.50;2227.20;;;;;;4835415;29;20038;-80
2021/11/25 01:45:57;;;;;;;60.67;34.40;;;51.50;2227.20;;;;;;4837097;29;20042;-80
2021/11/25 01:48:24;;;;;;;52.90;31.30;;;51.30;2227.20;;;;;;4820750;29;20091;-79
2021/11/25 01:50:53;;;;;;;55.50;32.23;;;51.50;2227.20;;;;;;4820640;29;20045;-79
2021/11/25 01:53:20;;;;;;;51.87;30.83;;;51.50;2227.20;;;;;;4819996;29;20038;-79
2021/11/25 01:55:48;;;;;;;54.53;30.63;;;51.50;2227.20;;;;;;4837205;29;20083;-80
2021/11/25 01:58:14;;;;;;;54.30;30.77;;;51.50;2227.20;;;;;;4821431;29;20141;-80
2021/11/25 02:00:42;;;;;;;54.30;30.80;;;51.50;2227.20;;;;;;4836776;29;20031;-80
2021/11/25 02:03:08;;;;;;;51.50;30.53;;;51.50;2227.20;;;;;;4837026;29;20026;-80
2021/11/25 02:05:35;;;;;;;50.77;30.83;;;51.50;2227.20;;;;;;4820377;29;20034;-80
2021/11/25 02:08:03;;;;;;;47.00;28.07;;;51.50;2227.20;;;;;;4820015;29;20026;-80
2021/11/25 02:10:29;;;;;;;51.77;30.77;;;51.50;2227.20;;;;;;4837083;29;20029;-80
2021/11/25 02:12:56;;;;;;;54.80;30.60;;;51.50;2227.20;;;;;;4819637;29;20053;-80
2021/11/25 02:15:22;;;;;;;54.97;30.47;;;51.80;2227.20;;;;;;4819703;29;20071;-80
2021/11/25 02:17:48;;;;;;;50.90;29.60;;;51.50;2227.20;;;;;;4836945;29;20055;-80
2021/11/25 02:20:14;;;;;;;47.87;28.70;;;51.50;2227.20;;;;;;4834687;29;20038;-80
2021/11/25 02:22:42;;;;;;;46.27;28.03;;;51.50;2227.20;;;;;;4836260;29;20087;-80
2021/11/25 02:25:10;;;;;;;49.57;28.23;;;51.50;2227.20;;;;;;4821224;29;20073;-80
2021/11/25 02:27:37;;;;;;;48.00;28.30;;;51.50;2227.20;;;;;;4836615;29;20039;-80
2021/11/25 02:30:05;;;;;;;47.03;27.83;;;51.50;2227.20;;;;;;4835075;29;20026;-80
2021/11/25 02:32:36;;;;;;;49.23;29.20;;;51.50;2227.20;;;;;;4836704;29;20062;-80
2021/11/25 02:35:04;;;;;;;50.87;30.17;;;51.50;2227.20;;;;;;4824642;29;20030;-80
2021/11/25 02:37:30;;;;;;;44.63;26.93;;;51.60;2227.20;;;;;;4823599;29;20030;-80
2021/11/25 02:39:57;;;;;;;49.40;28.93;;;51.60;2227.20;;;;;;4824051;29;20051;-80
2021/11/25 02:42:23;;;;;;;49.53;28.73;;;51.50;2227.20;;;;;;4841765;29;20051;-80
2021/11/25 02:44:49;;;;;;;49.63;28.20;;;51.50;2227.20;;;;;;4839780;29;20039;-80
2021/11/25 02:47:15;;;;;;;48.77;28.57;;;51.50;2227.20;;;;;;4840421;29;20077;-80
2021/11/25 02:49:41;;;;;;;47.13;28.50;;;51.50;2227.20;;;;;;4824532;29;20033;-80
2021/11/25 02:52:08;;;;;;;47.40;27.27;;;51.90;2227.20;;;;;;4823918;29;20035;-80
2021/11/25 02:54:35;;;;;;;53.37;29.17;;;51.60;2227.20;;;;;;4822753;29;20063;-80
2021/11/25 02:57:01;;;;;;;49.57;29.20;;;51.50;2227.20;;;;;;4839183;29;20026;-80
2021/11/25 02:59:27;;;;;;;50.33;27.70;;;51.40;2227.20;;;;;;4838552;29;20042;-79
2021/11/25 03:01:53;;;;;;;48.30;27.87;;;51.50;2227.20;;;;;;4824155;29;20031;-80
2021/11/25 03:04:19;;;;;;;46.37;27.77;;;51.50;2227.20;;;;;;4822896;29;20034;-80
2021/11/25 03:06:45;;;;;;;46.53;28.13;;;51.50;2227.20;;;;;;4822456;29;20095;-80
2021/11/25 03:09:12;;;;;;;49.97;29.57;;;51.50;2227.20;;;;;;4839287;29;20047;-80
2021/11/25 03:11:37;;;;;;;47.17;27.80;;;51.50;2227.20;;;;;;4823400;29;20109;-80
2021/11/25 03:14:06;;;;;;;48.33;27.10;;;51.50;2227.20;;;;;;4839035;29;20049;-80
2021/11/25 03:16:33;;;;;;;50.83;28.43;;;51.50;2227.20;;;;;;4839807;29;20047;-80
2021/11/25 03:19:00;;;;;;;45.00;26.57;;;51.50;2227.20;;;;;;4823359;29;20034;-80
2021/11/25 03:21:27;;;;;;;45.80;26.37;;;51.50;2227.20;;;;;;4839154;29;20479;-80
2021/11/25 03:23:54;;;;;;;42.67;26.17;;;51.50;2227.20;;;;;;4839464;29;20035;-80
2021/11/25 03:26:23;;;;;;;43.97;26.93;;;51.80;2227.20;;;;;;4839582;29;20030;-80
2021/11/25 03:28:50;;;;;;;42.23;25.77;;;51.60;2227.20;;;;;;4823675;29;20035;-80
2021/11/25 03:31:24;;;;;;;46.40;27.60;;;52.00;2227.20;;;;;;4823290;29;20041;-80
2021/11/25 03:33:50;;;;;;;46.37;26.47;;;51.60;2227.20;;;;;;4839539;29;20042;-80
2021/11/25 03:36:16;;;;;;;44.20;26.50;;;51.60;2227.20;;;;;;4823182;29;20077;-80
2021/11/25 03:38:42;;;;;;;43.50;26.40;;;51.60;2227.20;;;;;;4823686;29;20051;-80
2021/11/25 03:41:11;;;;;;;46.43;27.40;;;51.60;2227.20;;;;;;4824083;29;20115;-80
2021/11/25 03:43:37;;;;;;;42.90;25.53;;;51.60;2227.20;;;;;;4839500;29;20038;-80
2021/11/25 03:46:03;;;;;;;42.27;25.23;;;51.60;2227.20;;;;;;4840456;29;20031;-80
2021/11/25 03:48:30;;;;;;;43.07;25.43;;;76.80;2227.20;;;;;;4823673;29;20083;-80
2021/11/25 03:50:58;;;;;;;42.63;25.03;;;51.60;2227.20;;;;;;4839733;29;20034;-80
2021/11/25 03:53:25;;;;;;;42.23;26.27;;;51.60;2227.20;;;;;;4840435;29;20045;-80
2021/11/25 03:55:52;;;;;;;40.50;25.10;;;51.60;2227.20;;;;;;4824690;29;20046;-80
2021/11/25 03:58:18;;;;;;;40.37;24.43;;;51.50;2227.20;;;;;;4824736;29;20042;-80
2021/11/25 04:00:44;;;;;;;42.40;25.60;;;51.50;2227.20;;;;;;4825655;29;20122;-80
2021/11/25 04:03:10;;;;;;;39.03;24.40;;;51.60;2227.20;;;;;;4823424;29;20045;-80
2021/11/25 04:05:36;;;;;;;43.80;24.77;;;51.60;2227.20;;;;;;4841957;29;20084;-80
2021/11/25 04:08:03;;;;;;;41.97;24.30;;;51.50;2227.20;;;;;;4824523;29;20091;-80
2021/11/25 04:10:29;;;;;;;41.93;24.43;;;51.60;2227.20;;;;;;4839605;29;20030;-80
2021/11/25 04:12:55;;;;;;;41.67;25.43;;;51.50;2227.20;;;;;;4824951;29;20046;-81
2021/11/25 04:15:22;;;;;;;39.83;25.63;;;51.60;2227.20;;;;;;4839320;29;20030;-80
2021/11/25 04:17:49;;;;;;;48.30;26.90;;;51.70;2227.20;;;;;;4838673;29;20034;-80
2021/11/25 04:20:16;;;;;;;42.33;25.67;;;51.70;2227.20;;;;;;4839337;29;20270;-80
2021/11/25 04:22:42;;;;;;;44.10;24.93;;;51.70;2227.20;;;;;;4836594;29;20102;-80
2021/11/25 04:25:10;;;;;;;39.10;24.00;;;51.40;2227.20;;;;;;4820256;29;20034;-80
2021/11/25 04:27:37;;;;;;;39.60;24.43;;;51.80;2227.20;;;;;;4822274;29;20043;-80
2021/11/25 04:30:22;;;;;;;39.63;23.10;;;52.00;2227.20;;;;;;4837576;29;20034;-82
2021/11/25 04:35:35;;;;;;;39.27;24.20;;;51.80;2227.20;;;;;;4838438;29;20041;-80
2021/11/25 04:38:17;;;;;;;41.37;24.17;;;51.70;2227.20;;;;;;4837662;29;20034;-80
2021/11/25 04:40:47;;;;;;;41.27;24.80;;;51.70;2227.20;;;;;;4837960;29;20040;-80
2021/11/25 04:43:15;;;;;;;45.83;30.27;;;51.70;2227.20;;;;;;4820817;29;20098;-80
2021/11/25 04:45:43;;;;;;;38.03;24.07;;;51.70;2227.20;;;;;;4820796;29;20098;-80
2021/11/25 04:48:09;;;;;;;39.87;25.20;;;51.70;2227.20;;;;;;4820492;29;20050;-80
2021/11/25 04:50:37;;;;;;;42.80;26.73;;;51.70;2227.20;;;;;;4822447;29;20042;-80
2021/11/25 04:53:03;;;;;;;41.93;25.27;;;51.70;2227.20;;;;;;4836721;29;20045;-80
2021/11/25 04:55:30;;;;;;;41.17;25.67;;;51.70;2227.20;;;;;;4819945;29;20031;-80
2021/11/25 04:57:56;;;;;;;38.07;24.90;;;76.80;2227.20;;;;;;4820290;29;20042;-80
2021/11/25 05:00:22;;;;;;;43.77;28.53;;;51.70;2227.20;;;;;;4820040;29;20038;-79
2021/11/25 05:02:48;;;;;;;38.43;23.83;;;51.70;2227.20;;;;;;4835473;29;20034;-79
2021/11/25 05:05:14;;;;;;;39.03;24.50;;;51.70;2227.20;;;;;;4837743;29;20041;-80
2021/11/25 05:07:41;;;;;;;40.27;25.07;;;51.70;2227.20;;;;;;4818561;29;20037;-79
2021/11/25 05:10:08;;;;;;;40.20;26.57;;;51.70;2227.20;;;;;;4816253;29;20034;-79
2021/11/25 05:12:34;;;;;;;40.20;26.17;;;51.70;2227.20;;;;;;4834302;29;20072;-79
2021/11/25 05:15:00;;;;;;;46.07;28.33;;;51.70;2227.20;;;;;;4815249;29;20054;-79
2021/11/25 05:17:26;;;;;;;41.07;26.73;;;51.70;2227.20;;;;;;4816113;29;20090;-79
2021/11/25 05:19:52;;;;;;;47.47;32.67;;;76.80;2227.20;;;;;;4815803;29;20030;-79
2021/11/25 05:22:18;;;;;;;43.87;29.07;;;51.70;2227.20;;;;;;4828357;29;20022;-77
2021/11/25 05:24:44;;;;;;;48.47;29.60;;;51.70;2227.20;;;;;;4822383;29;20487;-77
2021/11/25 05:27:11;;;;;;;63.67;37.37;;;51.80;2227.20;;;;;;4824929;29;20038;-78
2021/11/25 05:29:37;;;;;;;64.17;38.17;;;51.70;2227.20;;;;;;4819946;29;20029;-78
2021/11/25 05:32:05;;;;;;;69.63;42.40;;;51.80;2227.20;;;;;;4826896;29;20046;-78
2021/11/25 05:34:31;;;;;;;58.60;38.30;;;51.70;2227.20;;;;;;4808221;29;20038;-78
2021/11/25 05:36:57;;;;;;;49.70;31.83;;;51.80;2227.20;;;;;;4825365;29;20442;-76
2021/11/25 05:39:23;;;;;;;51.57;32.87;;;51.80;2227.20;;;;;;4825947;29;20038;-77
2021/11/25 05:41:48;;;;;;;50.00;29.83;;;51.80;2227.20;;;;;;4808811;29;20038;-78
2021/11/25 05:44:14;;;;;;;48.93;29.53;;;51.90;2227.20;;;;;;4825370;29;20031;-78
2021/11/25 05:46:40;;;;;;;46.53;27.83;;;51.90;2227.20;;;;;;4809025;29;20507;-78
2021/11/25 05:49:06;;;;;;;46.73;26.80;;;51.90;2227.20;;;;;;4809258;29;20043;-78
2021/11/25 05:51:34;;;;;;;46.23;27.27;;;51.90;2227.20;;;;;;4826329;29;20037;-81
2021/11/25 05:54:00;;;;;;;50.07;30.83;;;51.90;2227.20;;;;;;4814015;29;20026;-76
2021/11/25 05:56:26;;;;;;;49.37;28.73;;;51.90;2227.20;;;;;;4831060;29;20030;-78
2021/11/25 05:58:54;;;;;;;48.03;29.90;;;52.00;2227.20;;;;;;4812355;29;20030;-78
2021/11/25 06:01:23;;;;;;;51.73;32.90;;;51.90;2227.20;;;;;;4815050;29;20167;-77
2021/11/25 06:03:53;;;;;;;50.37;32.27;;;52.00;2227.20;;;;;;4812683;29;20034;-78
2021/11/25 06:06:21;;;;;;;56.07;35.27;;;52.00;2227.20;;;;;;4831857;29;20025;-76
2021/11/25 06:08:47;;;;;;;60.70;37.33;;;52.00;2227.20;;;;;;4811708;29;20460;-76
2021/11/25 06:11:13;;;;;;;61.70;38.87;;;52.10;2227.20;;;;;;4813983;29;20023;-76
2021/11/25 06:13:39;;;;;;;67.33;42.83;;;52.10;2227.20;;;;;;4813848;29;20408;-76
2021/11/25 06:16:06;;;;;;;66.83;43.13;;;52.10;2227.20;;;;;;4828168;29;20031;-77
2021/11/25 06:18:32;;;;;;;91.40;59.07;;;52.10;2227.20;;;;;;4829816;29;20051;-77
2021/11/25 06:20:58;;;;;;;72.67;44.43;;;76.80;2227.20;;;;;;4830871;29;20034;-77
2021/11/25 06:23:24;;;;;;;70.67;43.50;;;76.90;2227.20;;;;;;4812695;29;20038;-76
2021/11/25 06:25:50;;;;;;;63.10;37.83;;;76.80;2227.20;;;;;;4829528;29;20022;-76
2021/11/25 06:28:16;;;;;;;66.97;38.13;;;76.80;2227.20;;;;;;4828174;29;20077;-76
2021/11/25 06:30:42;;;;;;;57.37;36.23;;;77.30;2227.20;;;;;;4811604;29;20033;-77
2021/11/25 06:33:08;;;;;;;59.93;36.60;;;76.90;2227.20;;;;;;4829871;29;20042;-77
2021/11/25 06:35:34;;;;;;;65.97;41.47;;;77.00;2227.20;;;;;;4828067;29;20036;-77
2021/11/25 06:38:01;;;;;;;67.07;42.10;;;77.00;2227.20;;;;;;4829636;29;20476;-77
2021/11/25 06:40:30;;;;;;;67.27;40.10;;;77.00;2227.20;;;;;;4828637;29;20491;-76
2021/11/25 06:42:57;;;;;;;59.37;37.10;;;77.10;2227.20;;;;;;4812759;29;20083;-77
2021/11/25 06:45:24;;;;;;;66.47;39.83;;;77.20;2227.20;;;;;;4828086;29;20061;-77
2021/11/25 06:47:51;;;;;;;68.20;41.57;;;77.20;2227.20;;;;;;4811517;29;20047;-77
2021/11/25 06:50:18;;;;;;;62.17;38.47;;;77.30;2227.20;;;;;;4812280;29;20384;-77
2021/11/25 06:52:44;;;;;;;70.23;40.13;;;77.40;2227.20;;;;;;4811672;29;20043;-77
2021/11/25 06:55:10;;;;;;;67.20;42.10;;;77.40;2227.20;;;;;;4811516;29;20083;-77
2021/11/25 06:57:38;;;;;;;70.23;40.53;;;77.50;2227.20;;;;;;4827613;29;20026;-76
2021/11/25 07:00:08;;;;;;;65.83;39.73;;;77.50;2227.20;;;;;;4827099;29;20113;-76
2021/11/25 07:02:33;;;;;;;71.50;42.17;;;77.60;2227.20;;;;;;4810635;29;20030;-76
2021/11/25 07:05:00;;;;;;;78.57;43.47;;;77.60;2227.20;;;;;;4810867;29;20074;-77
2021/11/25 07:07:29;;;;;;;69.80;40.87;;;77.70;2227.20;;;;;;4827407;29;20026;-76
2021/11/25 07:09:55;;;;;;;80.07;43.23;;;102.40;2227.20;;;;;;4827648;29;20404;-77
2021/11/25 07:12:21;;;;;;;81.00;46.73;;;102.40;2227.20;;;;;;4827808;29;20049;-77
2021/11/25 07:14:47;;;;;;;85.03;47.83;;;102.40;2227.20;;;;;;4812991;29;20083;-77
2021/11/25 07:17:13;;;;;;;83.60;47.27;;;102.50;2227.20;;;;;;4828257;29;20441;-77
2021/11/25 07:19:39;;;;;;;89.17;46.13;;;102.60;2227.20;;;;;;4828039;29;20105;-77
2021/11/25 07:22:05;;;;;;;96.13;53.63;;;102.60;2227.20;;;;;;4811239;29;20031;-74
2021/11/25 07:24:31;;;;;;;93.50;50.70;;;102.70;2227.20;;;;;;4829030;29;20027;-75
2021/11/25 07:26:57;;;;;;;87.13;47.10;;;102.80;2227.20;;;;;;4811913;29;20365;-74
2021/11/25 07:29:24;;;;;;;91.93;52.03;;;102.80;2227.20;;;;;;4812158;29;20037;-76
2021/11/25 07:31:51;;;;;;;71.77;39.70;;;102.90;2227.20;;;;;;4828465;29;20018;-74
2021/11/25 07:34:17;;;;;;;62.53;37.53;;;102.90;2227.20;;;;;;4810742;29;20074;-74
2021/11/25 07:36:43;;;;;;;61.23;34.87;;;103.00;2227.20;;;;;;4825690;29;20046;-74
2021/11/25 07:39:08;;;;;;;62.27;36.20;;;103.10;2227.20;;;;;;4828701;29;20059;-74
2021/11/25 07:41:38;;;;;;;62.20;34.57;;;103.10;2227.20;;;;;;4810610;29;20045;-74
2021/11/25 07:44:07;;;;;;;60.45;35.30;;;103.20;2227.20;;;;;;4812751;29;20391;-74
2021/11/25 07:46:35;;;;;;;58.07;34.17;;;103.30;2227.20;;;;;;4826007;29;20027;-73
2021/11/25 07:49:03;;;;;;;63.58;34.35;;;103.30;2227.20;;;;;;4809521;29;20524;-73
2021/11/25 07:51:30;;;;;;;58.83;34.40;;;128.00;2252.80;;;;;;4809520;29;20484;-73
2021/11/25 07:53:57;;;;;;;54.28;33.63;;;128.20;2252.80;;;;;;4825596;29;20089;-73
2021/11/25 07:56:23;;;;;;;70.97;39.25;;;128.60;2252.80;;;;;;4825765;29;20023;-73
2021/11/25 07:58:49;;;;;;;98.17;51.00;;;128.70;2252.80;;;;;;4825162;29;20179;-74
2021/11/25 08:01:14;;;;;;;73.43;44.20;;;128.90;2252.80;;;;;;4825560;29;20037;-74
2021/11/25 08:03:40;;;;;;;64.22;35.22;;;153.60;2252.80;;;;;;4825931;29;20034;-73
2021/11/25 08:06:06;;;;;;;61.90;37.45;;;153.60;2252.80;;;;;;4826036;29;20046;-73
2021/11/25 08:08:32;;;;;;;56.78;33.03;;;153.60;2252.80;;;;;;4810656;29;20424;-78
2021/11/25 08:11:02;;;;;;;61.25;37.25;;;153.60;2252.80;;;;;;4824537;29;20030;-73
2021/11/25 08:13:30;;;;;;;73.85;41.08;;;153.70;2252.80;;;;;;4827392;29;20129;-73
2021/11/25 08:16:00;;;;;;;73.68;41.35;;;153.70;2252.80;;;;;;4824069;29;20046;-73
2021/11/25 08:18:26;;;;;;;68.10;38.60;;;153.80;2252.80;;;;;;4809445;29;20035;-73
2021/11/25 08:20:52;;;;;;;72.68;42.22;;;153.70;2252.80;;;;;;4810331;29;20034;-73
2021/11/25 08:23:18;;;;;;;76.43;44.78;;;153.70;2252.80;;;;;;4809186;29;20038;-73
2021/11/25 08:25:44;;;;;;;65.97;38.42;;;153.90;2252.80;;;;;;4808729;29;20022;-73
2021/11/25 08:28:10;;;;;;;65.28;39.00;;;153.80;2252.80;;;;;;4809013;29;20041;-73
2021/11/25 08:30:36;;;;;;;59.83;34.90;;;153.80;2252.80;;;;;;4823925;29;20034;-73
2021/11/25 08:33:02;;;;;;;55.45;34.00;;;153.90;2252.80;;;;;;4811436;29;20035;-73
2021/11/25 08:35:28;;;;;;;58.00;36.17;;;154.00;2252.80;;;;;;4809202;29;20022;-74
2021/11/25 08:37:59;;;;;;;65.00;39.47;;;154.00;2252.80;;;;;;4810370;29;20507;-74
2021/11/25 08:40:26;;;;;;;65.88;39.70;;;154.00;2252.80;;;;;;4825026;29;20053;-74
2021/11/25 08:42:51;;;;;;;67.78;37.75;;;154.00;2252.80;;;;;;4824788;29;20057;-73
2021/11/25 08:45:18;;;;;;;58.80;36.13;;;154.00;2252.80;;;;;;4809042;29;20109;-73
2021/11/25 08:47:44;;;;;;;71.55;41.90;;;154.00;2252.80;;;;;;4808594;29;20432;-73
2021/11/25 08:50:12;;;;;;;75.28;43.17;;;154.00;2252.80;;;;;;4809321;29;20072;-74
2021/11/25 08:52:39;;;;;;;74.70;43.25;;;154.10;2252.80;;;;;;4808912;29;20491;-73
2021/11/25 08:55:06;;;;;;;71.40;40.92;;;154.20;2252.80;;;;;;4809709;29;20061;-73
2021/11/25 08:57:31;;;;;;;64.30;40.20;;;154.20;2252.80;;;;;;4824835;29;20034;-73
2021/11/25 08:59:57;;;;;;;65.90;40.00;;;154.20;2252.80;;;;;;4824618;29;20082;-73
2021/11/25 09:02:23;;;;;;;61.88;37.22;;;154.30;2252.80;;;;;;4793690;29;20118;-72
2021/11/25 09:04:49;;;;;;;69.78;41.03;;;154.30;2252.80;;;;;;4824204;29;20452;-73
2021/11/25 09:07:15;;;;;;;70.10;43.38;;;154.30;2252.80;;;;;;4823517;29;20113;-73
2021/11/25 09:09:41;;;;;;;71.97;46.53;;;154.40;2252.80;;;;;;4806082;29;20113;-73
2021/11/25 09:12:07;;;;;;;83.97;49.38;;;154.30;2252.80;;;;;;4824076;29;20034;-73
2021/11/25 09:14:33;;;;;;;77.10;48.00;;;154.20;2252.80;;;;;;4828928;29;20034;-73
2021/11/25 09:16:59;;;;;;;77.40;46.22;;;154.20;2252.80;;;;;;4807941;29;20034;-73
2021/11/25 09:19:25;;;;;;;73.68;45.58;;;154.20;2252.80;;;;;;4824531;29;20026;-73
2021/11/25 09:21:51;;;;;;;84.55;50.80;;;154.20;2252.80;;;;;;4824040;29;20033;-73
2021/11/25 09:24:18;;;;;;;73.80;46.92;;;154.00;2252.80;;;;;;4807794;29;20065;-74
2021/11/25 09:26:43;;;;;;;78.72;45.13;;;153.90;2252.80;;;;;;4807361;29;20143;-73
2021/11/25 09:29:10;;;;;;;73.05;44.10;;;153.90;2252.80;;;;;;4808101;29;20129;-73
2021/11/25 09:31:37;;;;;;;66.13;42.95;;;153.90;2252.80;;;;;;4824640;29;20035;-73
2021/11/25 09:34:04;;;;;;;66.47;40.22;;;153.90;2252.80;;;;;;4807697;29;20042;-76
2021/11/25 09:36:31;;;;;;;78.00;47.25;;;154.00;2252.80;;;;;;4824419;29;20037;-70
2021/11/25 09:38:59;;;;;;;76.55;44.40;;;154.10;2252.80;;;;;;4824244;29;20475;-70
2021/11/25 09:41:25;;;;;;;73.57;43.88;;;154.10;2252.80;;;;;;4824024;29;20425;-70
2021/11/25 09:43:52;;;;;;;71.70;44.40;;;154.20;2252.80;;;;;;4823987;29;20031;-71
2021/11/25 09:46:21;;;;;;;70.53;44.55;;;154.20;2252.80;;;;;;4824260;29;20037;-72
2021/11/25 09:48:47;;;;;;;75.18;44.55;;;154.30;2252.80;;;;;;4807395;29;20062;-71
2021/11/25 09:51:14;;;;;;;82.35;47.22;;;154.30;2252.80;;;;;;4823834;29;20117;-73
2021/11/25 09:53:39;;;;;;;76.85;44.95;;;154.30;2252.80;;;;;;4824244;29;20448;-73
2021/11/25 09:56:07;;;;;;;69.95;44.58;;;154.40;2252.80;;;;;;4823949;29;20072;-71
2021/11/25 09:58:34;;;;;;;79.72;48.30;;;154.40;2252.80;;;;;;4821605;29;20495;-70
2021/11/25 10:01:14;;;;;;;92.35;53.47;;;154.50;2252.80;;;;;;4824064;29;20027;-73
2021/11/25 10:03:48;;;;;;;93.20;56.17;;;154.50;2252.80;;;;;;4825936;29;20462;-72
2021/11/25 10:06:17;;;;;;;106.10;61.42;;;154.50;2252.80;;;;;;4823499;29;20037;-74
2021/11/25 10:08:48;;;;;;;87.78;51.67;;;179.20;2252.80;;;;;;4808576;29;20034;-70
2021/11/25 10:11:33;;;;;;;88.68;54.63;;;179.20;2252.80;;;;;;4824301;29;20027;-71
2021/11/25 10:14:08;;;;;;;95.90;56.63;;;179.30;2252.80;;;;;;4824037;29;20050;-72
2021/11/25 10:16:37;;;;;;;85.97;49.85;;;179.50;2252.80;;;;;;4824257;29;20031;-72
2021/11/25 10:19:23;;;;;;;84.88;47.83;;;179.50;2252.80;;;;;;4824145;29;20038;-73
2021/11/25 10:21:56;;;;;;;90.18;48.13;;;179.60;2252.80;;;;;;4807855;29;20026;-71
2021/11/25 10:24:38;;;;;;;85.57;48.05;;;179.70;2252.80;;;;;;4823722;29;20531;-71
2021/11/25 10:27:25;;;;;;;95.53;53.47;;;179.70;2252.80;;;;;;4806000;29;20118;-67
2021/11/25 10:30:15;;;;;;;87.82;49.15;;;179.80;2252.80;;;;;;4805915;29;20035;-73
2021/11/25 10:32:41;;;;;;;84.05;49.30;;;179.80;2252.80;;;;;;4805695;29;20039;-74
2021/11/25 10:40:34;;;;;;;85.35;53.03;;;179.90;2252.80;;;;;;4767277;30;20551;-72
2021/11/25 10:43:19;;;;;;;89.10;54.70;;;180.00;2252.80;;;;;;4767611;30;20052;-73
2021/11/25 10:45:48;;;;;;;107.78;67.28;;;180.00;2252.80;;;;;;4747285;30;20031;-73
2021/11/25 10:48:28;;;;;;;113.53;69.57;;;180.10;2252.80;;;;;;4778155;30;20066;-73
2021/11/25 10:50:55;;;;;;;94.43;61.95;;;180.10;2252.80;;;;;;4758274;30;20032;-73
2021/11/25 10:53:20;;;;;;;88.88;56.47;;;204.80;2252.80;;;;;;4781496;29;20451;-74
2021/11/25 10:55:46;;;;;;;89.85;56.05;;;204.90;2252.80;;;;;;4788627;30;20039;-73
2021/11/25 10:58:12;;;;;;;62.47;40.10;;;204.90;2252.80;;;;;;4788975;30;20507;-73
2021/11/25 11:00:41;;;;;;;59.35;38.28;;;204.90;2252.80;;;;;;4788660;30;20035;-73
2021/11/25 11:03:12;;;;;;;59.78;39.35;;;204.90;2252.80;;;;;;4788703;30;20126;-73
2021/11/25 11:05:57;;;;;;;64.65;42.22;;;204.90;2252.80;;;;;;4788552;30;20039;-74
2021/11/25 11:08:26;;;;;;;69.60;44.38;;;205.00;2252.80;;;;;;4773063;30;20067;-72
2021/11/25 11:11:00;;;;;;;64.57;42.90;;;205.00;2252.80;;;;;;4790535;30;20043;-72
2021/11/25 11:18:57;;;;;;;100.75;62.65;;;205.10;2252.80;;;;;;4829866;29;20046;-73
2021/11/25 11:21:34;;;;;;;78.95;50.33;;;205.30;2252.80;;;;;;4814893;29;20031;-73
2021/11/25 11:24:22;;;;;;;82.65;50.67;;;205.30;2252.80;;;;;;4828441;29;20113;-71
2021/11/25 11:26:52;;;;;;;128.25;73.32;;;205.40;2252.80;;;;;;4797213;29;20035;-72
2021/11/25 11:29:26;;;;;;;180.10;97.63;;;205.50;2252.80;;;;;;4824911;29;20042;-72
2021/11/25 11:31:54;;;;;;;222.32;110.57;;;205.60;2252.80;;;;;;4821456;29;20492;-74
2021/11/25 11:34:20;;;;;;;682.80;361.48;;;230.40;2252.80;;;;;;4824430;29;20045;-72
2021/11/25 11:36:50;;;;;;;182.45;98.20;;;230.50;2252.80;;;;;;4825564;29;20050;-73
2021/11/25 11:39:18;;;;;;;139.98;76.63;;;230.60;2252.80;;;;;;4825731;29;20060;-74
2021/11/25 11:41:49;;;;;;;188.23;100.20;;;230.60;2252.80;;;;;;4809471;29;20027;-74
2021/11/25 11:44:20;;;;;;;139.25;70.80;;;230.70;2252.80;;;;;;4823856;29;20030;-73
2021/11/25 11:46:47;;;;;;;102.93;56.42;;;230.80;2252.80;;;;;;4825459;29;20042;-72
2021/11/25 11:49:13;;;;;;;173.25;81.03;;;230.90;2252.80;;;;;;4825344;29;20163;-72
2021/11/25 11:51:39;;;;;;;84.78;54.75;;;230.90;2252.80;;;;;;4809175;29;20121;-73
2021/11/25 11:54:18;;;;;;;112.15;62.50;;;230.90;2252.80;;;;;;4825568;29;20099;-72
2021/11/25 11:56:46;;;;;;;90.22;54.85;;;231.00;2252.80;;;;;;4823019;29;20079;-72
2021/11/25 11:59:13;;;;;;;110.25;58.67;;;231.10;2252.80;;;;;;4824734;29;20027;-74
2021/11/25 12:01:40;;;;;;;355.52;148.35;;;231.20;2252.80;;;;;;4826191;29;20437;-72
2021/11/25 12:04:06;;;;;;;167.93;81.65;;;256.00;2252.80;;;;;;4825874;29;20057;-71
2021/11/25 12:06:42;;;;;;;194.27;91.57;;;256.20;2252.80;;;;;;4824987;29;20069;-72
2021/11/25 12:09:14;;;;;;;88.85;50.33;;;256.20;2252.80;;;;;;4824691;29;20030;-72
2021/11/25 12:12:07;;;;;;;79.95;48.00;;;256.30;2252.80;;;;;;4825920;29;20030;-73
2021/11/25 12:14:34;;;;;;;63.50;37.55;;;256.40;2252.80;;;;;;4813681;29;20123;-72
2021/11/25 12:17:08;;;;;;;74.38;44.70;;;256.30;2252.80;;;;;;4825589;29;20034;-72
2021/11/25 12:19:43;;;;;;;55.42;38.22;;;256.40;2252.80;;;;;;4825771;29;20030;-72